createdAt,value
2018-11-27T00:01:09.474Z,11.20
2018-11-27T00:03:43.035Z,10.73
2018-11-27T00:06:10.914Z,11.17
2018-11-27T00:08:38.684Z,11.73
2018-11-27T00:11:06.173Z,11.07
2018-11-27T00:13:33.585Z,11.23
2018-11-27T00:16:00.977Z,11.60
2018-11-27T00:18:28.395Z,11.83
2018-11-27T00:20:55.786Z,13.63
2018-11-27T00:23:23.225Z,12.77
2018-11-27T00:25:50.625Z,12.07
2018-11-27T00:28:18.040Z,12.53
2018-11-27T00:30:45.478Z,13.00
2018-11-27T00:33:13.637Z,11.13
2018-11-27T00:35:41.086Z,12.13
2018-11-27T00:38:08.512Z,11.60
2018-11-27T00:40:36.040Z,12.90
2018-11-27T00:43:04.502Z,10.23
2018-11-27T00:45:31.956Z,11.17
2018-11-27T00:47:59.357Z,11.53
2018-11-27T00:50:26.699Z,12.20
2018-11-27T00:52:54.300Z,10.53
2018-11-27T00:55:22.026Z,10.23
2018-11-27T00:57:50.382Z,12.23
2018-11-27T01:00:20.032Z,11.03
2018-11-27T01:02:48.248Z,11.50
2018-11-27T01:05:16.919Z,10.63
2018-11-27T01:07:45.941Z,11.00
2018-11-27T01:10:17.430Z,10.17
2018-11-27T01:12:44.932Z,10.23
2018-11-27T01:15:13.156Z,10.43
2018-11-27T01:17:44.888Z,11.13
2018-11-27T01:20:20.117Z,9.40
2018-11-27T01:22:47.672Z,8.57
2018-11-27T01:25:15.139Z,9.13
2018-11-27T01:27:43.198Z,7.97
2018-11-27T01:30:14.655Z,9.07
2018-11-27T01:32:42.234Z,9.37
2018-11-27T01:35:12.002Z,7.80
2018-11-27T01:37:39.436Z,7.17
2018-11-27T01:40:17.326Z,8.40
2018-11-27T01:42:45.614Z,8.30
2018-11-27T01:45:14.134Z,7.40
2018-11-27T01:47:41.561Z,9.07
2018-11-27T01:50:11.886Z,6.77
2018-11-27T01:52:39.326Z,8.60
2018-11-27T01:55:09.480Z,7.83
2018-11-27T01:57:37.090Z,8.53
2018-11-27T02:00:07.620Z,6.73
2018-11-27T02:02:34.997Z,7.43
2018-11-27T02:05:02.497Z,6.23
2018-11-27T02:07:29.859Z,6.80
2018-11-27T02:09:57.292Z,7.60
2018-11-27T02:12:24.748Z,6.60
2018-11-27T02:14:52.164Z,5.97
2018-11-27T02:17:19.548Z,6.03
2018-11-27T02:19:46.902Z,6.53
2018-11-27T02:22:14.347Z,6.50
2018-11-27T02:24:41.716Z,6.40
2018-11-27T02:27:09.102Z,6.70
2018-11-27T02:29:36.501Z,6.67
2018-11-27T02:32:03.968Z,7.47
2018-11-27T02:34:31.356Z,6.97
2018-11-27T02:36:58.787Z,5.80
2018-11-27T02:39:26.249Z,6.73
2018-11-27T02:41:53.702Z,6.13
2018-11-27T02:44:21.312Z,7.80
2018-11-27T02:46:48.766Z,8.03
2018-11-27T02:49:16.157Z,7.20
2018-11-27T02:51:44.278Z,9.40
2018-11-27T02:54:11.703Z,7.33
2018-11-27T02:56:39.141Z,7.17
2018-11-27T02:59:06.533Z,7.90
2018-11-27T03:01:33.996Z,8.30
2018-11-27T03:04:01.402Z,6.97
2018-11-27T03:06:28.801Z,8.23
2018-11-27T03:08:56.236Z,8.70
2018-11-27T03:11:25.133Z,7.87
2018-11-27T03:13:52.586Z,8.97
2018-11-27T03:16:20.005Z,9.13
2018-11-27T03:18:47.416Z,8.20
2018-11-27T03:21:14.826Z,9.33
2018-11-27T03:23:42.236Z,8.00
2018-11-27T03:26:10.202Z,10.43
2018-11-27T03:28:37.652Z,9.13
2018-11-27T03:31:05.093Z,10.43
2018-11-27T03:33:32.477Z,9.03
2018-11-27T03:35:59.936Z,8.60
2018-11-27T03:38:27.403Z,8.00
2018-11-27T03:40:54.797Z,11.13
2018-11-27T03:43:22.187Z,10.23
2018-11-27T03:45:50.531Z,10.90
2018-11-27T03:48:17.926Z,11.73
2018-11-27T03:50:45.330Z,9.87
2018-11-27T03:53:12.721Z,11.60
2018-11-27T03:55:40.164Z,8.80
2018-11-27T03:58:07.559Z,12.00
2018-11-27T04:00:35.004Z,13.23
2018-11-27T04:03:05.509Z,10.80
2018-11-27T04:05:32.948Z,20.10
2018-11-27T04:08:00.312Z,11.67
2018-11-27T04:10:29.064Z,14.07
2018-11-27T04:12:56.476Z,13.00
2018-11-27T04:15:23.909Z,13.73
2018-11-27T04:17:51.408Z,11.97
2018-11-27T04:20:18.919Z,14.07
2018-11-27T04:22:46.359Z,20.50
2018-11-27T04:25:15.048Z,14.97
2018-11-27T04:27:43.088Z,16.20
2018-11-27T04:30:11.936Z,12.23
2018-11-27T04:32:39.348Z,22.70
2018-11-27T04:35:07.672Z,16.70
2018-11-27T04:37:35.134Z,13.47
2018-11-27T04:40:02.605Z,15.07
2018-11-27T04:42:30.014Z,13.10
2018-11-27T04:44:57.458Z,13.50
2018-11-27T04:47:25.737Z,11.07
2018-11-27T04:49:53.134Z,13.73
2018-11-27T04:52:20.612Z,12.87
2018-11-27T04:54:48.024Z,12.63
2018-11-27T04:57:16.409Z,10.27
2018-11-27T04:59:44.562Z,12.53
2018-11-27T05:02:12.042Z,11.93
2018-11-27T05:04:39.560Z,10.73
2018-11-27T05:07:07.040Z,11.10
2018-11-27T05:09:35.049Z,14.53
2018-11-27T05:12:02.451Z,14.60
2018-11-27T05:14:30.679Z,12.17
2018-11-27T05:16:58.068Z,14.70
2018-11-27T05:19:25.507Z,15.83
2018-11-27T05:21:52.928Z,13.37
2018-11-27T05:24:20.324Z,18.10
2018-11-27T05:26:48.291Z,13.03
2018-11-27T05:29:15.816Z,15.20
2018-11-27T05:31:43.605Z,39.00
2018-11-27T05:34:11.006Z,14.30
2018-11-27T05:36:38.460Z,18.43
2018-11-27T05:39:08.260Z,16.60
2018-11-27T05:41:35.889Z,15.20
2018-11-27T05:44:04.427Z,20.60
2018-11-27T05:46:32.362Z,15.70
2018-11-27T05:48:59.909Z,16.43
2018-11-27T05:51:27.318Z,13.07
2018-11-27T05:53:54.728Z,16.33
2018-11-27T05:56:22.184Z,16.10
2018-11-27T05:58:49.571Z,30.13
2018-11-27T06:01:17.544Z,14.40
2018-11-27T06:03:45.002Z,19.03
2018-11-27T06:06:12.452Z,18.27
2018-11-27T06:08:40.571Z,17.17
2018-11-27T06:11:08.636Z,23.70
2018-11-27T06:13:36.126Z,33.40
2018-11-27T06:16:03.644Z,50.27
2018-11-27T06:18:31.049Z,34.17
2018-11-27T06:20:58.477Z,24.23
2018-11-27T06:23:25.897Z,21.37
2018-11-27T06:25:53.489Z,32.30
2018-11-27T06:28:20.947Z,20.83
2018-11-27T06:30:48.370Z,22.27
2018-11-27T06:33:15.808Z,26.07
2018-11-27T06:35:43.647Z,25.80
2018-11-27T06:38:11.459Z,23.53
2018-11-27T06:40:39.887Z,16.03
2018-11-27T06:43:08.678Z,13.87
2018-11-27T06:45:36.988Z,19.00
2018-11-27T06:48:04.464Z,28.00
2018-11-27T06:50:32.138Z,32.63
2018-11-27T06:53:00.369Z,28.37
2018-11-27T06:55:27.757Z,34.87
2018-11-27T06:57:55.211Z,31.93
2018-11-27T07:00:25.033Z,26.33
2018-11-27T07:02:52.898Z,49.60
2018-11-27T07:05:20.444Z,33.60
2018-11-27T07:07:47.874Z,38.77
2018-11-27T07:10:19.456Z,27.67
2018-11-27T07:12:48.256Z,36.20
2018-11-27T07:15:19.027Z,21.37
2018-11-27T07:17:46.526Z,63.23
2018-11-27T07:20:14.089Z,22.90
2018-11-27T07:22:41.594Z,29.07
2018-11-27T07:25:11.518Z,34.40
2018-11-27T07:27:39.091Z,35.97
2018-11-27T07:30:09.952Z,45.00
2018-11-27T07:32:37.441Z,35.10
2018-11-27T07:35:06.387Z,32.80
2018-11-27T07:37:33.923Z,62.77
2018-11-27T07:40:03.343Z,27.53
2018-11-27T07:42:29.662Z,45.17
2018-11-27T07:44:57.136Z,30.33
2018-11-27T07:47:24.498Z,34.23
2018-11-27T07:49:51.948Z,62.93
2018-11-27T07:52:19.877Z,40.00
2018-11-27T07:54:47.316Z,36.33
2018-11-27T07:57:14.727Z,47.77
2018-11-27T07:59:43.135Z,39.10
2018-11-27T08:02:10.558Z,32.67
2018-11-27T08:04:38.009Z,32.43
2018-11-27T08:07:06.299Z,45.97
2018-11-27T08:09:33.860Z,41.27
2018-11-27T08:12:01.413Z,51.50
2018-11-27T08:14:28.868Z,28.93
2018-11-27T08:16:56.272Z,48.57
2018-11-27T08:19:24.647Z,38.93
2018-11-27T08:21:52.148Z,38.67
2018-11-27T08:24:19.582Z,34.97
2018-11-27T08:26:47.678Z,30.63
2018-11-27T08:29:15.092Z,34.37
2018-11-27T08:31:42.537Z,36.07
2018-11-27T08:34:09.973Z,33.67
2018-11-27T08:36:37.363Z,27.07
2018-11-27T08:39:07.837Z,26.07
2018-11-27T08:41:40.236Z,33.90
2018-11-27T08:44:02.802Z,34.30
2018-11-27T08:46:31.038Z,35.80
2018-11-27T08:48:58.447Z,34.37
2018-11-27T08:51:25.947Z,32.70
2018-11-27T08:53:53.366Z,35.60
2018-11-27T08:56:20.830Z,34.60
2018-11-27T08:58:48.304Z,34.73
2018-11-27T09:01:16.247Z,30.90
2018-11-27T09:03:46.475Z,29.00
2018-11-27T09:06:11.125Z,26.97
2018-11-27T09:08:38.497Z,34.07
2018-11-27T09:11:05.984Z,34.07
2018-11-27T09:13:33.378Z,38.63
2018-11-27T09:16:00.777Z,47.87
2018-11-27T09:18:28.198Z,39.27
2018-11-27T09:20:55.612Z,33.50
2018-11-27T09:23:23.038Z,32.93
2018-11-27T09:25:50.568Z,30.47
2018-11-27T09:28:18.019Z,31.10
2018-11-27T09:30:45.503Z,25.37
2018-11-27T09:33:12.928Z,27.90
2018-11-27T09:35:40.353Z,27.60
2018-11-27T09:38:08.039Z,29.23
2018-11-27T09:40:35.595Z,25.60
2018-11-27T09:43:03.064Z,28.50
2018-11-27T09:45:30.668Z,24.47
2018-11-27T09:47:58.587Z,22.43
2018-11-27T09:50:26.029Z,21.63
2018-11-27T09:52:53.614Z,25.67
2018-11-27T09:55:23.205Z,27.73
2018-11-27T09:57:50.556Z,29.27
2018-11-27T10:00:22.908Z,25.97
2018-11-27T10:02:51.365Z,25.17
2018-11-27T10:05:18.819Z,25.83
2018-11-27T10:07:46.276Z,28.03
2018-11-27T10:10:15.201Z,28.97
2018-11-27T10:12:42.660Z,28.27
2018-11-27T10:15:12.669Z,31.13
2018-11-27T10:17:40.071Z,27.17
2018-11-27T10:20:09.690Z,24.23
2018-11-27T10:22:37.092Z,28.20
2018-11-27T10:25:05.782Z,30.30
2018-11-27T10:27:33.159Z,26.90
2018-11-27T10:30:00.590Z,26.60
2018-11-27T10:32:28.109Z,45.93
2018-11-27T10:34:55.599Z,41.43
2018-11-27T10:37:23.604Z,33.67
2018-11-27T10:39:51.169Z,31.60
2018-11-27T10:42:18.564Z,24.77
2018-11-27T10:44:46.011Z,28.03
2018-11-27T10:47:13.560Z,29.30
2018-11-27T10:49:40.951Z,39.80
2018-11-27T10:52:08.394Z,34.73
2018-11-27T10:54:35.816Z,28.70
2018-11-27T10:57:03.225Z,27.90
2018-11-27T10:59:30.609Z,26.17
2018-11-27T11:02:03.739Z,30.13
2018-11-27T11:04:31.149Z,32.03
2018-11-27T11:06:58.565Z,32.47
2018-11-27T11:09:25.961Z,33.27
2018-11-27T11:11:53.384Z,31.10
2018-11-27T11:14:20.883Z,29.60
2018-11-27T11:16:48.270Z,28.80
2018-11-27T11:19:18.381Z,32.77
2018-11-27T11:21:43.178Z,31.67
2018-11-27T11:24:10.619Z,30.40
2018-11-27T11:26:38.009Z,33.43
2018-11-27T11:29:05.770Z,33.10
2018-11-27T11:31:33.194Z,23.80
2018-11-27T11:34:00.658Z,27.80
2018-11-27T11:36:28.086Z,30.23
2018-11-27T11:38:55.509Z,28.00
2018-11-27T11:41:22.890Z,27.00
2018-11-27T11:43:50.310Z,31.50
2018-11-27T11:46:17.718Z,31.97
2018-11-27T11:48:45.135Z,36.80
2018-11-27T11:51:12.543Z,38.03
2018-11-27T11:53:40.003Z,30.83
2018-11-27T11:56:08.235Z,30.17
2018-11-27T11:58:35.622Z,35.07
2018-11-27T12:01:03.097Z,34.50
2018-11-27T12:03:30.529Z,31.80
2018-11-27T12:07:22.413Z,31.33
2018-11-27T12:09:49.878Z,28.07
2018-11-27T12:12:18.178Z,30.63
2018-11-27T12:14:45.634Z,32.30
2018-11-27T12:17:13.110Z,31.80
2018-11-27T12:19:40.514Z,27.57
2018-11-27T12:22:08.921Z,57.23
2018-11-27T12:24:36.499Z,37.53
2018-11-27T12:27:04.219Z,29.00
2018-11-27T12:29:31.662Z,25.57
2018-11-27T12:31:59.884Z,22.50
2018-11-27T12:34:28.197Z,22.63
2018-11-27T12:36:55.657Z,27.73
2018-11-27T12:39:23.031Z,23.07
2018-11-27T12:41:50.649Z,24.57
2018-11-27T12:44:18.229Z,24.13
2018-11-27T12:46:45.690Z,23.73
2018-11-27T12:49:13.096Z,25.23
2018-11-27T12:51:40.678Z,33.97
2018-11-27T12:54:08.140Z,39.70
2018-11-27T12:56:35.708Z,30.13
2018-11-27T12:59:03.160Z,32.10
2018-11-27T13:01:30.644Z,26.57
2018-11-27T13:03:58.087Z,27.83
2018-11-27T13:06:27.785Z,26.57
2018-11-27T13:08:53.039Z,24.23
2018-11-27T13:11:20.435Z,22.20
2018-11-27T13:13:47.921Z,22.60
2018-11-27T13:16:15.331Z,24.23
2018-11-27T13:18:42.721Z,22.57
2018-11-27T13:21:10.361Z,21.83
2018-11-27T13:23:37.812Z,25.23
2018-11-27T13:26:05.529Z,25.00
2018-11-27T13:28:33.004Z,21.30
2018-11-27T13:31:03.095Z,22.00
2018-11-27T13:33:34.350Z,22.13
2018-11-27T13:36:01.739Z,22.67
2018-11-27T13:38:29.137Z,25.30
2018-11-27T13:40:56.597Z,37.67
2018-11-27T13:43:27.149Z,27.60
2018-11-27T13:45:55.679Z,21.83
2018-11-27T13:48:23.165Z,20.87
2018-11-27T13:50:50.584Z,22.37
2018-11-27T13:53:18.060Z,23.23
2018-11-27T13:55:45.465Z,21.23
2018-11-27T13:58:12.845Z,24.20
2018-11-27T14:00:40.245Z,30.27
2018-11-27T14:03:10.789Z,23.47
2018-11-27T14:05:35.275Z,23.50
2018-11-27T14:08:02.731Z,27.17
2018-11-27T14:10:30.141Z,23.53
2018-11-27T14:12:57.625Z,24.83
2018-11-27T14:15:25.396Z,24.33
2018-11-27T14:17:54.016Z,25.17
2018-11-27T14:20:21.445Z,23.20
2018-11-27T14:22:49.591Z,21.00
2018-11-27T14:25:17.038Z,24.00
2018-11-27T14:27:44.880Z,25.97
2018-11-27T14:30:17.595Z,23.60
2018-11-27T14:32:45.223Z,23.73
2018-11-27T14:35:13.401Z,27.67
2018-11-27T14:37:40.854Z,23.47
2018-11-27T14:40:15.825Z,29.60
2018-11-27T14:42:43.455Z,28.07
2018-11-27T14:45:15.818Z,25.33
2018-11-27T14:47:43.998Z,23.53
2018-11-27T14:50:11.868Z,26.33
2018-11-27T14:52:39.314Z,33.27
2018-11-27T14:55:14.142Z,22.83
2018-11-27T14:57:41.529Z,27.50
2018-11-27T15:00:10.890Z,30.60
2018-11-27T15:02:38.303Z,27.10
2018-11-27T15:05:08.430Z,28.70
2018-11-27T15:07:35.809Z,28.23
2018-11-27T15:10:03.816Z,24.23
2018-11-27T15:12:31.225Z,24.13
2018-11-27T15:14:58.676Z,26.23
2018-11-27T15:17:26.157Z,24.00
2018-11-27T15:19:53.696Z,23.93
2018-11-27T15:22:21.100Z,25.07
2018-11-27T15:24:48.557Z,26.27
2018-11-27T15:27:16.042Z,23.77
2018-11-27T15:29:43.446Z,27.20
2018-11-27T15:32:10.972Z,26.30
2018-11-27T15:34:38.388Z,27.07
2018-11-27T15:37:06.071Z,28.13
2018-11-27T15:39:33.545Z,28.57
2018-11-27T15:42:01.021Z,29.33
2018-11-27T15:44:28.451Z,33.17
2018-11-27T15:46:55.970Z,31.07
2018-11-27T15:49:23.473Z,28.50
2018-11-27T15:51:51.723Z,23.47
2018-11-27T15:54:19.124Z,17.83
2018-11-27T15:56:46.706Z,19.30
2018-11-27T15:59:14.772Z,21.43
2018-11-27T16:01:42.261Z,19.07
2018-11-27T16:04:09.773Z,22.00
2018-11-27T16:06:37.281Z,21.23
2018-11-27T16:09:08.872Z,22.83
2018-11-27T16:11:37.592Z,23.30
2018-11-27T16:14:06.363Z,23.13
2018-11-27T16:16:33.860Z,18.97
2018-11-27T16:19:02.057Z,24.13
2018-11-27T16:21:29.433Z,20.60
2018-11-27T16:23:56.974Z,23.83
2018-11-27T16:26:25.160Z,24.30
2018-11-27T16:28:52.624Z,31.13
2018-11-27T16:31:20.652Z,29.67
2018-11-27T16:33:48.151Z,27.53
2018-11-27T16:36:15.703Z,28.37
2018-11-27T16:38:43.197Z,23.87
2018-11-27T16:41:10.623Z,29.67
2018-11-27T16:43:38.223Z,48.23
2018-11-27T16:46:05.813Z,35.87
2018-11-27T16:48:33.273Z,35.90
2018-11-27T16:51:00.832Z,29.63
2018-11-27T16:53:28.487Z,25.93
2018-11-27T16:55:56.056Z,20.37
2018-11-27T16:58:23.658Z,19.67
2018-11-27T17:00:51.758Z,20.97
2018-11-27T17:03:19.141Z,20.77
2018-11-27T17:05:46.526Z,23.90
2018-11-27T17:08:13.983Z,20.00
2018-11-27T17:10:43.378Z,23.87
2018-11-27T17:13:11.869Z,24.93
2018-11-27T17:15:39.361Z,22.60
2018-11-27T17:18:08.477Z,22.23
2018-11-27T17:20:37.579Z,20.47
2018-11-27T17:23:07.707Z,20.63
2018-11-27T17:25:35.106Z,35.30
2018-11-27T17:28:08.131Z,29.97
2018-11-27T17:30:42.219Z,28.93
2018-11-27T17:33:18.526Z,26.00
2018-11-27T17:35:46.517Z,40.37
2018-11-27T17:38:14.063Z,55.10
2018-11-27T17:40:42.243Z,26.10
2018-11-27T17:43:09.771Z,40.90
2018-11-27T17:45:37.359Z,30.80
2018-11-27T17:48:05.454Z,30.03
2018-11-27T17:50:32.994Z,33.17
2018-11-27T17:53:00.460Z,28.83
2018-11-27T17:55:27.908Z,28.60
2018-11-27T17:57:55.387Z,27.30
2018-11-27T18:00:24.677Z,24.20
2018-11-27T18:02:54.368Z,44.93
2018-11-27T18:05:21.967Z,37.43
2018-11-27T18:07:50.143Z,26.40
2018-11-27T18:10:17.707Z,27.32
2018-11-27T18:12:45.283Z,26.80
2018-11-27T18:15:14.224Z,25.03
2018-11-27T18:17:41.712Z,25.37
2018-11-27T18:20:10.482Z,26.00
2018-11-27T18:22:38.618Z,22.90
2018-11-27T18:25:08.298Z,25.93
2018-11-27T18:27:35.734Z,66.87
2018-11-27T18:30:04.723Z,96.57
2018-11-27T18:32:32.285Z,45.13
2018-11-27T18:34:59.726Z,34.63
2018-11-27T18:37:27.284Z,28.17
2018-11-27T18:39:54.708Z,103.07
2018-11-27T18:42:22.910Z,67.10
2018-11-27T18:44:50.512Z,51.43
2018-11-27T18:47:18.497Z,48.50
2018-11-27T18:49:46.788Z,43.83
2018-11-27T18:52:15.174Z,45.60
2018-11-27T18:54:42.607Z,41.43
2018-11-27T18:57:10.687Z,35.50
2018-11-27T18:59:38.788Z,35.27
2018-11-27T19:02:06.534Z,33.20
2018-11-27T19:04:34.112Z,28.77
2018-11-27T19:07:02.923Z,26.83
2018-11-27T19:09:30.475Z,30.43
2018-11-27T19:11:58.717Z,26.00
2018-11-27T19:14:26.263Z,27.90
2018-11-27T19:16:54.139Z,30.47
2018-11-27T19:19:21.675Z,29.23
2018-11-27T19:21:49.388Z,26.40
2018-11-27T19:24:16.965Z,26.07
2018-11-27T19:26:44.524Z,27.87
2018-11-27T19:29:12.048Z,30.23
2018-11-27T19:31:40.389Z,27.23
2018-11-27T19:34:08.066Z,30.60
2018-11-27T19:36:35.644Z,27.67
2018-11-27T19:39:03.903Z,26.73
2018-11-27T19:41:31.382Z,27.43
2018-11-27T19:43:58.903Z,26.77
2018-11-27T19:48:53.298Z,26.00
2018-11-27T19:51:14.788Z,34.93
2018-11-27T19:53:42.208Z,48.83
2018-11-27T19:56:09.944Z,37.83
2018-11-27T19:58:37.384Z,37.43
2018-11-27T20:01:06.550Z,36.27
2018-11-27T20:03:34.082Z,28.00
2018-11-27T20:06:02.310Z,30.40
2018-11-27T20:08:29.874Z,27.53
2018-11-27T20:10:57.344Z,31.27
2018-11-27T20:13:24.862Z,28.37
2018-11-27T20:15:52.482Z,29.97
2018-11-27T20:18:19.994Z,32.97
2018-11-27T20:20:47.496Z,35.63
2018-11-27T20:23:15.044Z,35.50
2018-11-27T20:25:42.983Z,79.87
2018-11-27T20:28:10.450Z,62.70
2018-11-27T20:30:39.503Z,33.47
2018-11-27T20:33:07.045Z,34.33
2018-11-27T20:35:34.609Z,38.53
2018-11-27T20:38:04.359Z,36.00
2018-11-27T20:40:32.019Z,37.57
2018-11-27T20:42:59.675Z,36.63
2018-11-27T20:45:27.484Z,29.50
2018-11-27T20:47:58.699Z,32.77
2018-11-27T20:50:26.285Z,33.07
2018-11-27T20:52:54.369Z,34.87
2018-11-27T20:55:22.144Z,35.67
2018-11-27T20:57:52.285Z,35.23
2018-11-27T21:00:23.001Z,35.63
2018-11-27T21:02:51.783Z,29.90
2018-11-27T21:05:19.376Z,34.17
2018-11-27T21:07:47.638Z,32.13
2018-11-27T21:10:15.073Z,37.63
2018-11-27T21:12:43.388Z,33.33
2018-11-27T21:15:13.932Z,32.20
2018-11-27T21:17:41.427Z,27.87
2018-11-27T21:20:11.017Z,32.07
2018-11-27T21:22:38.499Z,28.43
2018-11-27T21:25:08.763Z,27.13
2018-11-27T21:27:36.209Z,25.77
2018-11-27T21:30:07.419Z,25.83
2018-11-27T21:32:34.953Z,25.43
2018-11-27T21:35:03.094Z,23.73
2018-11-27T21:37:30.700Z,25.47
2018-11-27T21:39:58.509Z,24.90
2018-11-27T21:42:26.029Z,28.03
2018-11-27T21:44:53.630Z,25.83
2018-11-27T21:47:21.129Z,22.97
2018-11-27T21:49:49.220Z,27.27
2018-11-27T21:52:16.927Z,23.77
2018-11-27T21:54:44.567Z,25.10
2018-11-27T21:57:12.128Z,22.17
2018-11-27T21:59:39.858Z,26.80
2018-11-27T22:02:07.482Z,26.63
2018-11-27T22:04:34.910Z,27.73
2018-11-27T22:07:03.031Z,29.93
2018-11-27T22:09:30.857Z,30.63
2018-11-27T22:11:58.493Z,30.60
2018-11-27T22:14:26.186Z,29.17
2018-11-27T22:16:54.212Z,29.13
2018-11-27T22:19:21.788Z,28.63
2018-11-27T22:21:49.858Z,28.47
2018-11-27T22:24:17.309Z,28.23
2018-11-27T22:26:45.522Z,31.40
2018-11-27T22:29:12.946Z,38.93
2018-11-27T22:31:40.608Z,33.47
2018-11-27T22:34:11.693Z,37.47
2018-11-27T22:36:39.324Z,31.33
2018-11-27T22:39:12.994Z,31.07
2018-11-27T22:41:41.493Z,27.83
2018-11-27T22:44:09.705Z,27.33
2018-11-27T22:46:37.428Z,28.40
2018-11-27T22:49:05.755Z,27.10
2018-11-27T22:51:33.747Z,29.30
2018-11-27T22:54:02.208Z,26.00
2018-11-27T22:56:29.612Z,28.30
2018-11-27T22:58:57.043Z,26.80
2018-11-27T23:01:24.456Z,31.00
2018-11-27T23:03:51.942Z,27.67
2018-11-27T23:06:20.052Z,26.23
2018-11-27T23:08:48.117Z,26.87
2018-11-27T23:11:15.566Z,26.97
2018-11-27T23:13:43.159Z,26.73
2018-11-27T23:16:10.558Z,29.97
2018-11-27T23:18:38.585Z,30.47
2018-11-27T23:21:06.065Z,28.57
2018-11-27T23:23:33.487Z,28.77
2018-11-27T23:26:00.938Z,32.50
2018-11-27T23:28:28.434Z,32.33
2018-11-27T23:30:55.975Z,31.33
2018-11-27T23:33:23.358Z,28.50
2018-11-27T23:35:51.518Z,31.30
2018-11-27T23:38:19.098Z,30.00
2018-11-27T23:40:46.544Z,32.23
2018-11-27T23:43:14.119Z,26.00
2018-11-27T23:45:41.585Z,25.53
2018-11-27T23:48:09.638Z,27.97
2018-11-27T23:50:37.129Z,28.03
2018-11-27T23:53:04.958Z,27.00
2018-11-27T23:55:32.353Z,28.43
2018-11-27T23:57:59.854Z,27.50
